sensor_id;sensor_type;location;lat;lon;timestamp;P1;durP1;ratioP1;P2;durP2;ratioP2
32788;SDS011;19141;48.980;8.410;2023-05-10T04:22:33;12.05;;;3.85;;
32788;SDS011;19141;48.980;8.410;2023-05-10T04:24:58;8.98;;;4.60;;
32788;SDS011;19141;48.980;8.410;2023-05-10T04:27:24;11.23;;;4.25;;
32788;SDS011;19141;48.980;8.410;2023-05-10T04:29:49;9.73;;;4.30;;
32788;SDS011;19141;48.980;8.410;2023-05-10T04:32:15;5.95;;;3.35;;
32788;SDS011;19141;48.980;8.410;2023-05-10T04:34:42;8.30;;;3.83;;
32788;SDS011;19141;48.980;8.410;2023-05-10T04:37:08;5.78;;;3.47;;
32788;SDS011;19141;48.980;8.410;2023-05-10T04:39:34;8.45;;;3.30;;
32788;SDS011;19141;48.980;8.410;2023-05-10T04:42:00;8.68;;;3.60;;
32788;SDS011;19141;48.980;8.410;2023-05-10T04:44:28;5.20;;;3.50;;
32788;SDS011;19141;48.980;8.410;2023-05-10T04:46:53;8.73;;;3.90;;
32788;SDS011;19141;48.980;8.410;2023-05-10T04:49:19;5.70;;;3.17;;
32788;SDS011;19141;48.980;8.410;2023-05-10T04:51:44;9.60;;;4.00;;
32788;SDS011;19141;48.980;8.410;2023-05-10T04:54:10;8.25;;;3.50;;
32788;SDS011;19141;48.980;8.410;2023-05-10T04:56:35;5.80;;;3.42;;
32788;SDS011;19141;48.980;8.410;2023-05-10T04:59:01;9.07;;;3.60;;
32788;SDS011;19141;48.980;8.410;2023-05-10T05:01:26;6.35;;;3.15;;
32788;SDS011;19141;48.980;8.410;2023-05-10T05:03:52;5.05;;;3.05;;
32788;SDS011;19141;48.980;8.410;2023-05-10T05:06:18;5.70;;;3.33;;
32788;SDS011;19141;48.980;8.410;2023-05-10T05:08:43;7.32;;;3.63;;
32788;SDS011;19141;48.980;8.410;2023-05-10T05:11:08;8.50;;;3.50;;
32788;SDS011;19141;48.980;8.410;2023-05-10T05:13:34;5.32;;;3.10;;
32788;SDS011;19141;48.980;8.410;2023-05-10T05:16:00;4.40;;;2.97;;
32788;SDS011;19141;48.980;8.410;2023-05-10T05:18:27;8.05;;;4.10;;
32788;SDS011;19141;48.980;8.410;2023-05-10T05:20:53;5.93;;;3.15;;
32788;SDS011;19141;48.980;8.410;2023-05-10T05:23:18;5.70;;;3.53;;
32788;SDS011;19141;48.980;8.410;2023-05-10T05:25:45;6.85;;;3.35;;
32788;SDS011;19141;48.980;8.410;2023-05-10T05:28:11;10.15;;;3.47;;
32788;SDS011;19141;48.980;8.410;2023-05-10T05:30:36;6.93;;;3.70;;
32788;SDS011;19141;48.980;8.410;2023-05-10T05:33:02;6.78;;;3.75;;
32788;SDS011;19141;48.980;8.410;2023-05-10T05:35:27;7.25;;;4.05;;
32788;SDS011;19141;48.980;8.410;2023-05-10T05:37:53;9.55;;;4.35;;
32788;SDS011;19141;48.980;8.410;2023-05-10T05:40:18;6.28;;;2.90;;
32788;SDS011;19141;48.980;8.410;2023-05-10T05:42:45;13.95;;;3.95;;
32788;SDS011;19141;48.980;8.410;2023-05-10T05:45:11;7.82;;;3.85;;
32788;SDS011;19141;48.980;8.410;2023-05-10T05:47:38;6.82;;;2.85;;
32788;SDS011;19141;48.980;8.410;2023-05-10T05:50:04;6.25;;;3.63;;
32788;SDS011;19141;48.980;8.410;2023-05-10T05:52:30;8.05;;;3.70;;
32788;SDS011;19141;48.980;8.410;2023-05-10T05:54:56;6.07;;;3.33;;
32788;SDS011;19141;48.980;8.410;2023-05-10T05:57:21;7.28;;;3.45;;
32788;SDS011;19141;48.980;8.410;2023-05-10T05:59:46;4.25;;;2.50;;
32788;SDS011;19141;48.980;8.410;2023-05-10T06:02:12;4.53;;;2.70;;
32788;SDS011;19141;48.980;8.410;2023-05-10T06:04:37;4.00;;;2.33;;
32788;SDS011;19141;48.980;8.410;2023-05-10T06:07:03;4.85;;;2.85;;
32788;SDS011;19141;48.980;8.410;2023-05-10T06:09:28;4.32;;;2.40;;
32788;SDS011;19141;48.980;8.410;2023-05-10T06:11:54;3.70;;;2.28;;
32788;SDS011;19141;48.980;8.410;2023-05-10T06:14:20;5.63;;;2.22;;
32788;SDS011;19141;48.980;8.410;2023-05-10T06:16:45;3.17;;;2.15;;
32788;SDS011;19141;48.980;8.410;2023-05-10T06:19:11;4.75;;;2.20;;
32788;SDS011;19141;48.980;8.410;2023-05-10T06:21:37;4.03;;;2.50;;
32788;SDS011;19141;48.980;8.410;2023-05-10T06:24:02;5.57;;;2.83;;
32788;SDS011;19141;48.980;8.410;2023-05-10T06:26:28;7.88;;;3.53;;
32788;SDS011;19141;48.980;8.410;2023-05-10T06:28:53;5.57;;;3.03;;
32788;SDS011;19141;48.980;8.410;2023-05-10T06:31:19;5.28;;;3.05;;
32788;SDS011;19141;48.980;8.410;2023-05-10T06:33:44;6.22;;;3.20;;
32788;SDS011;19141;48.980;8.410;2023-05-10T06:36:10;4.85;;;2.67;;
32788;SDS011;19141;48.980;8.410;2023-05-10T06:38:35;4.82;;;2.75;;
32788;SDS011;19141;48.980;8.410;2023-05-10T06:41:01;6.43;;;3.17;;
32788;SDS011;19141;48.980;8.410;2023-05-10T06:43:26;5.18;;;2.60;;
32788;SDS011;19141;48.980;8.410;2023-05-10T06:45:53;3.20;;;2.15;;
32788;SDS011;19141;48.980;8.410;2023-05-10T06:48:19;2.85;;;2.13;;
32788;SDS011;19141;48.980;8.410;2023-05-10T06:50:44;4.43;;;2.33;;
32788;SDS011;19141;48.980;8.410;2023-05-10T06:53:09;4.57;;;2.42;;
32788;SDS011;19141;48.980;8.410;2023-05-10T06:55:35;3.67;;;2.42;;
32788;SDS011;19141;48.980;8.410;2023-05-10T06:58:00;3.13;;;2.00;;
32788;SDS011;19141;48.980;8.410;2023-05-10T07:00:27;4.25;;;2.40;;
32788;SDS011;19141;48.980;8.410;2023-05-10T07:02:52;3.60;;;2.10;;
32788;SDS011;19141;48.980;8.410;2023-05-10T07:05:18;4.13;;;2.00;;
32788;SDS011;19141;48.980;8.410;2023-05-10T07:07:43;4.43;;;2.22;;
32788;SDS011;19141;48.980;8.410;2023-05-10T07:10:09;4.20;;;1.88;;
32788;SDS011;19141;48.980;8.410;2023-05-10T07:12:34;2.40;;;1.50;;
32788;SDS011;19141;48.980;8.410;2023-05-10T07:15:00;1.92;;;1.50;;
32788;SDS011;19141;48.980;8.410;2023-05-10T07:17:25;3.42;;;2.03;;
32788;SDS011;19141;48.980;8.410;2023-05-10T07:19:51;3.38;;;1.52;;
32788;SDS011;19141;48.980;8.410;2023-05-10T07:22:16;2.85;;;1.80;;
32788;SDS011;19141;48.980;8.410;2023-05-10T07:24:42;2.67;;;1.83;;
32788;SDS011;19141;48.980;8.410;2023-05-10T07:27:08;3.08;;;1.55;;
32788;SDS011;19141;48.980;8.410;2023-05-10T07:29:34;2.47;;;1.60;;
32788;SDS011;19141;48.980;8.410;2023-05-10T07:31:59;4.07;;;1.67;;
32788;SDS011;19141;48.980;8.410;2023-05-10T07:34:25;3.78;;;1.70;;
32788;SDS011;19141;48.980;8.410;2023-05-10T07:36:51;2.85;;;1.50;;
32788;SDS011;19141;48.980;8.410;2023-05-10T07:39:16;2.55;;;1.40;;
32788;SDS011;19141;48.980;8.410;2023-05-10T07:41:42;2.20;;;1.38;;
32788;SDS011;19141;48.980;8.410;2023-05-10T07:44:07;4.43;;;1.33;;
32788;SDS011;19141;48.980;8.410;2023-05-10T07:46:33;1.90;;;1.10;;
32788;SDS011;19141;48.980;8.410;2023-05-10T07:48:58;2.72;;;1.50;;
32788;SDS011;19141;48.980;8.410;2023-05-10T07:51:23;1.48;;;1.00;;
32788;SDS011;19141;48.980;8.410;2023-05-10T07:53:49;2.60;;;1.10;;
32788;SDS011;19141;48.980;8.410;2023-05-10T07:56:27;2.70;;;1.08;;
32788;SDS011;19141;48.980;8.410;2023-05-10T07:58:56;2.08;;;1.20;;
32788;SDS011;19141;48.980;8.410;2023-05-10T08:01:23;2.90;;;1.55;;
32788;SDS011;19141;48.980;8.410;2023-05-10T08:03:49;1.27;;;1.00;;
32788;SDS011;19141;48.980;8.410;2023-05-10T08:06:16;2.63;;;1.15;;
32788;SDS011;19141;48.980;8.410;2023-05-10T08:08:42;2.87;;;1.07;;
32788;SDS011;19141;48.980;8.410;2023-05-10T08:11:08;2.40;;;0.95;;
32788;SDS011;19141;48.980;8.410;2023-05-10T08:13:33;1.83;;;0.90;;
32788;SDS011;19141;48.980;8.410;2023-05-10T08:15:59;1.95;;;1.20;;
32788;SDS011;19141;48.980;8.410;2023-05-10T08:18:25;2.92;;;1.10;;
32788;SDS011;19141;48.980;8.410;2023-05-10T08:20:51;2.60;;;1.33;;
32788;SDS011;19141;48.980;8.410;2023-05-10T08:23:16;0.90;;;0.80;;
32788;SDS011;19141;48.980;8.410;2023-05-10T08:25:41;1.23;;;1.02;;
32788;SDS011;19141;48.980;8.410;2023-05-10T08:28:07;3.05;;;1.27;;
32788;SDS011;19141;48.980;8.410;2023-05-10T08:30:32;2.28;;;1.02;;
32788;SDS011;19141;48.980;8.410;2023-05-10T08:32:57;1.05;;;0.95;;
32788;SDS011;19141;48.980;8.410;2023-05-10T08:35:24;1.23;;;0.95;;
32788;SDS011;19141;48.980;8.410;2023-05-10T08:37:50;2.25;;;1.00;;
32788;SDS011;19141;48.980;8.410;2023-05-10T08:40:16;1.38;;;0.82;;
32788;SDS011;19141;48.980;8.410;2023-05-10T08:42:50;0.70;;;0.68;;
32788;SDS011;19141;48.980;8.410;2023-05-10T08:45:30;0.93;;;0.73;;
32788;SDS011;19141;48.980;8.410;2023-05-10T08:47:57;1.27;;;0.80;;
32788;SDS011;19141;48.980;8.410;2023-05-10T08:50:26;2.10;;;0.80;;
32788;SDS011;19141;48.980;8.410;2023-05-10T08:52:52;2.90;;;0.88;;
32788;SDS011;19141;48.980;8.410;2023-05-10T08:55:23;2.10;;;0.90;;
32788;SDS011;19141;48.980;8.410;2023-05-10T08:57:49;1.50;;;1.10;;
32788;SDS011;19141;48.980;8.410;2023-05-10T09:00:15;1.13;;;0.75;;
32788;SDS011;19141;48.980;8.410;2023-05-10T09:02:41;1.77;;;1.25;;
32788;SDS011;19141;48.980;8.410;2023-05-10T09:05:08;0.88;;;0.73;;
32788;SDS011;19141;48.980;8.410;2023-05-10T09:07:34;0.97;;;0.87;;
32788;SDS011;19141;48.980;8.410;2023-05-10T09:10:00;1.27;;;0.93;;
32788;SDS011;19141;48.980;8.410;2023-05-10T09:12:26;1.88;;;1.08;;
32788;SDS011;19141;48.980;8.410;2023-05-10T09:14:52;1.33;;;0.80;;
32788;SDS011;19141;48.980;8.410;2023-05-10T09:17:19;1.92;;;0.88;;
32788;SDS011;19141;48.980;8.410;2023-05-10T09:19:45;0.98;;;0.88;;
32788;SDS011;19141;48.980;8.410;2023-05-10T09:22:10;1.33;;;1.00;;
32788;SDS011;19141;48.980;8.410;2023-05-10T09:24:36;1.58;;;1.20;;
32788;SDS011;19141;48.980;8.410;2023-05-10T09:27:07;0.70;;;0.70;;
32788;SDS011;19141;48.980;8.410;2023-05-10T09:29:39;0.60;;;0.60;;
32788;SDS011;19141;48.980;8.410;2023-05-10T09:32:05;1.00;;;0.70;;
32788;SDS011;19141;48.980;8.410;2023-05-10T09:34:31;1.00;;;0.70;;
32788;SDS011;19141;48.980;8.410;2023-05-10T09:37:00;1.10;;;0.60;;
32788;SDS011;19141;48.980;8.410;2023-05-10T09:39:34;1.20;;;0.70;;
32788;SDS011;19141;48.980;8.410;2023-05-10T09:42:02;1.48;;;0.75;;
32788;SDS011;19141;48.980;8.410;2023-05-10T09:44:29;1.10;;;0.88;;
32788;SDS011;19141;48.980;8.410;2023-05-10T09:46:55;2.00;;;1.05;;
32788;SDS011;19141;48.980;8.410;2023-05-10T09:49:21;4.60;;;0.93;;
32788;SDS011;19141;48.980;8.410;2023-05-10T09:51:47;2.10;;;0.80;;
32788;SDS011;19141;48.980;8.410;2023-05-10T09:54:15;1.60;;;0.85;;
32788;SDS011;19141;48.980;8.410;2023-05-10T09:56:41;1.35;;;1.13;;
32788;SDS011;19141;48.980;8.410;2023-05-10T09:59:10;1.10;;;0.82;;
32788;SDS011;19141;48.980;8.410;2023-05-10T10:01:37;1.38;;;1.13;;
32788;SDS011;19141;48.980;8.410;2023-05-10T10:04:06;2.05;;;1.20;;
32788;SDS011;19141;48.980;8.410;2023-05-10T10:06:41;0.95;;;0.80;;
32788;SDS011;19141;48.980;8.410;2023-05-10T10:09:07;1.90;;;0.95;;
32788;SDS011;19141;48.980;8.410;2023-05-10T10:11:36;1.10;;;1.00;;
32788;SDS011;19141;48.980;8.410;2023-05-10T10:14:02;4.05;;;1.42;;
32788;SDS011;19141;48.980;8.410;2023-05-10T10:16:30;1.40;;;1.27;;
32788;SDS011;19141;48.980;8.410;2023-05-10T10:18:57;1.55;;;1.00;;
32788;SDS011;19141;48.980;8.410;2023-05-10T10:21:23;2.60;;;1.10;;
32788;SDS011;19141;48.980;8.410;2023-05-10T10:23:49;1.17;;;0.85;;
32788;SDS011;19141;48.980;8.410;2023-05-10T10:26:15;1.67;;;1.10;;
32788;SDS011;19141;48.980;8.410;2023-05-10T10:28:56;4.53;;;1.02;;
32788;SDS011;19141;48.980;8.410;2023-05-10T10:31:55;1.23;;;1.00;;
32788;SDS011;19141;48.980;8.410;2023-05-10T10:34:31;1.52;;;1.10;;
32788;SDS011;19141;48.980;8.410;2023-05-10T10:36:57;2.22;;;1.30;;
32788;SDS011;19141;48.980;8.410;2023-05-10T10:39:28;3.35;;;1.25;;
32788;SDS011;19141;48.980;8.410;2023-05-10T10:41:57;1.85;;;1.20;;
32788;SDS011;19141;48.980;8.410;2023-05-10T10:44:24;2.45;;;1.10;;
32788;SDS011;19141;48.980;8.410;2023-05-10T10:49:26;2.05;;;1.45;;
32788;SDS011;19141;48.980;8.410;2023-05-10T10:57:57;2.45;;;1.42;;
32788;SDS011;19141;48.980;8.410;2023-05-10T11:00:28;3.60;;;1.70;;
32788;SDS011;19141;48.980;8.410;2023-05-10T11:10:52;1.70;;;1.10;;
32788;SDS011;19141;48.980;8.410;2023-05-10T11:13:29;2.33;;;1.10;;
32788;SDS011;19141;48.980;8.410;2023-05-10T11:15:57;1.38;;;1.15;;
32788;SDS011;19141;48.980;8.410;2023-05-10T11:18:27;1.00;;;0.93;;
32788;SDS011;19141;48.980;8.410;2023-05-10T11:21:00;2.10;;;1.13;;
32788;SDS011;19141;48.980;8.410;2023-05-10T11:23:32;1.50;;;1.20;;
32788;SDS011;19141;48.980;8.410;2023-05-10T11:26:13;1.25;;;1.15;;
32788;SDS011;19141;48.980;8.410;2023-05-10T11:28:45;2.38;;;1.38;;
32788;SDS011;19141;48.980;8.410;2023-05-10T11:31:18;2.70;;;1.13;;
32788;SDS011;19141;48.980;8.410;2023-05-10T11:33:51;1.13;;;0.98;;
32788;SDS011;19141;48.980;8.410;2023-05-10T11:36:21;1.08;;;0.93;;
32788;SDS011;19141;48.980;8.410;2023-05-10T11:38:48;2.58;;;0.90;;
32788;SDS011;19141;48.980;8.410;2023-05-10T11:41:14;1.13;;;0.98;;
32788;SDS011;19141;48.980;8.410;2023-05-10T11:43:41;1.45;;;1.25;;
32788;SDS011;19141;48.980;8.410;2023-05-10T11:46:08;2.70;;;1.40;;
32788;SDS011;19141;48.980;8.410;2023-05-10T11:48:36;2.25;;;1.05;;
32788;SDS011;19141;48.980;8.410;2023-05-10T11:53:32;1.50;;;0.65;;
32788;SDS011;19141;48.980;8.410;2023-05-10T11:56:06;2.75;;;0.85;;
32788;SDS011;19141;48.980;8.410;2023-05-10T11:58:33;0.93;;;0.82;;
32788;SDS011;19141;48.980;8.410;2023-05-10T12:01:02;2.08;;;0.77;;
32788;SDS011;19141;48.980;8.410;2023-05-10T12:03:28;2.45;;;0.63;;
32788;SDS011;19141;48.980;8.410;2023-05-10T12:05:55;0.43;;;0.43;;
32788;SDS011;19141;48.980;8.410;2023-05-10T12:08:22;3.40;;;0.65;;
32788;SDS011;19141;48.980;8.410;2023-05-10T12:10:49;0.65;;;0.45;;
32788;SDS011;19141;48.980;8.410;2023-05-10T12:13:15;0.43;;;0.43;;
32788;SDS011;19141;48.980;8.410;2023-05-10T12:15:41;0.93;;;0.57;;
32788;SDS011;19141;48.980;8.410;2023-05-10T12:18:08;0.57;;;0.57;;
32788;SDS011;19141;48.980;8.410;2023-05-10T12:20:35;0.45;;;0.45;;
32788;SDS011;19141;48.980;8.410;2023-05-10T12:23:01;0.75;;;0.63;;
32788;SDS011;19141;48.980;8.410;2023-05-10T12:25:34;0.30;;;0.30;;
32788;SDS011;19141;48.980;8.410;2023-05-10T12:28:05;0.40;;;0.40;;
32788;SDS011;19141;48.980;8.410;2023-05-10T12:30:33;0.52;;;0.52;;
32788;SDS011;19141;48.980;8.410;2023-05-10T12:33:17;1.48;;;0.60;;
32788;SDS011;19141;48.980;8.410;2023-05-10T12:35:47;0.68;;;0.50;;
32788;SDS011;19141;48.980;8.410;2023-05-10T12:38:31;1.70;;;0.70;;
32788;SDS011;19141;48.980;8.410;2023-05-10T12:41:04;1.23;;;0.73;;
32788;SDS011;19141;48.980;8.410;2023-05-10T12:43:31;1.75;;;0.73;;
32788;SDS011;19141;48.980;8.410;2023-05-10T12:45:57;0.88;;;0.77;;
32788;SDS011;19141;48.980;8.410;2023-05-10T12:48:22;0.82;;;0.70;;
32788;SDS011;19141;48.980;8.410;2023-05-10T12:50:48;0.60;;;0.50;;
32788;SDS011;19141;48.980;8.410;2023-05-10T12:53:14;0.90;;;0.80;;
32788;SDS011;19141;48.980;8.410;2023-05-10T12:55:43;0.80;;;0.80;;
32788;SDS011;19141;48.980;8.410;2023-05-10T12:58:08;0.70;;;0.65;;
32788;SDS011;19141;48.980;8.410;2023-05-10T13:00:34;0.60;;;0.60;;
32788;SDS011;19141;48.980;8.410;2023-05-10T13:02:59;3.20;;;0.70;;
32788;SDS011;19141;48.980;8.410;2023-05-10T13:05:25;0.70;;;0.63;;
32788;SDS011;19141;48.980;8.410;2023-05-10T13:07:50;1.05;;;0.73;;
32788;SDS011;19141;48.980;8.410;2023-05-10T13:10:16;2.05;;;0.98;;
32788;SDS011;19141;48.980;8.410;2023-05-10T13:12:41;1.00;;;0.85;;
32788;SDS011;19141;48.980;8.410;2023-05-10T13:15:07;1.65;;;0.60;;
32788;SDS011;19141;48.980;8.410;2023-05-10T13:17:32;0.90;;;0.47;;
32788;SDS011;19141;48.980;8.410;2023-05-10T13:19:58;2.28;;;0.50;;
32788;SDS011;19141;48.980;8.410;2023-05-10T13:22:23;0.70;;;0.60;;
32788;SDS011;19141;48.980;8.410;2023-05-10T13:24:49;1.08;;;0.60;;
32788;SDS011;19141;48.980;8.410;2023-05-10T13:27:14;0.40;;;0.40;;
32788;SDS011;19141;48.980;8.410;2023-05-10T13:29:40;0.90;;;0.60;;
32788;SDS011;19141;48.980;8.410;2023-05-10T13:32:05;0.57;;;0.57;;
32788;SDS011;19141;48.980;8.410;2023-05-10T13:34:31;0.50;;;0.50;;
32788;SDS011;19141;48.980;8.410;2023-05-10T13:36:56;0.82;;;0.60;;
32788;SDS011;19141;48.980;8.410;2023-05-10T13:39:22;0.63;;;0.60;;
32788;SDS011;19141;48.980;8.410;2023-05-10T13:41:47;0.80;;;0.75;;
32788;SDS011;19141;48.980;8.410;2023-05-10T13:44:13;0.70;;;0.70;;
32788;SDS011;19141;48.980;8.410;2023-05-10T13:46:40;0.50;;;0.50;;
32788;SDS011;19141;48.980;8.410;2023-05-10T13:49:06;1.73;;;0.53;;
32788;SDS011;19141;48.980;8.410;2023-05-10T13:51:33;2.22;;;1.10;;
32788;SDS011;19141;48.980;8.410;2023-05-10T13:53:58;0.55;;;0.50;;
32788;SDS011;19141;48.980;8.410;2023-05-10T13:56:24;2.47;;;1.45;;
32788;SDS011;19141;48.980;8.410;2023-05-10T13:58:49;2.65;;;0.82;;
32788;SDS011;19141;48.980;8.410;2023-05-10T14:01:15;0.82;;;0.55;;
32788;SDS011;19141;48.980;8.410;2023-05-10T14:03:40;1.40;;;0.57;;
32788;SDS011;19141;48.980;8.410;2023-05-10T14:06:06;0.60;;;0.35;;
32788;SDS011;19141;48.980;8.410;2023-05-10T14:08:32;0.50;;;0.50;;
32788;SDS011;19141;48.980;8.410;2023-05-10T14:10:58;0.68;;;0.52;;
32788;SDS011;19141;48.980;8.410;2023-05-10T14:13:23;0.60;;;0.45;;
32788;SDS011;19141;48.980;8.410;2023-05-10T14:15:49;0.63;;;0.63;;
32788;SDS011;19141;48.980;8.410;2023-05-10T14:18:15;1.90;;;0.70;;
32788;SDS011;19141;48.980;8.410;2023-05-10T14:20:40;0.50;;;0.50;;
32788;SDS011;19141;48.980;8.410;2023-05-10T14:23:06;0.60;;;0.50;;
32788;SDS011;19141;48.980;8.410;2023-05-10T14:25:31;1.20;;;0.50;;
32788;SDS011;19141;48.980;8.410;2023-05-10T14:27:56;0.52;;;0.50;;
32788;SDS011;19141;48.980;8.410;2023-05-10T14:30:22;0.68;;;0.57;;
32788;SDS011;19141;48.980;8.410;2023-05-10T14:32:47;0.43;;;0.43;;
32788;SDS011;19141;48.980;8.410;2023-05-10T14:35:12;0.35;;;0.35;;
32788;SDS011;19141;48.980;8.410;2023-05-10T14:37:38;0.88;;;0.60;;
32788;SDS011;19141;48.980;8.410;2023-05-10T14:40:04;0.57;;;0.40;;
32788;SDS011;19141;48.980;8.410;2023-05-10T14:42:29;1.00;;;0.80;;
32788;SDS011;19141;48.980;8.410;2023-05-10T14:44:56;0.30;;;0.30;;
32788;SDS011;19141;48.980;8.410;2023-05-10T14:47:21;1.33;;;0.60;;
32788;SDS011;19141;48.980;8.410;2023-05-10T14:49:47;1.10;;;0.40;;
32788;SDS011;19141;48.980;8.410;2023-05-10T14:52:12;2.55;;;0.70;;
32788;SDS011;19141;48.980;8.410;2023-05-10T14:54:39;0.40;;;0.40;;
32788;SDS011;19141;48.980;8.410;2023-05-10T14:57:05;0.50;;;0.50;;
32788;SDS011;19141;48.980;8.410;2023-05-10T14:59:31;0.40;;;0.40;;
32788;SDS011;19141;48.980;8.410;2023-05-10T15:01:57;1.38;;;0.60;;
32788;SDS011;19141;48.980;8.410;2023-05-10T15:04:22;0.40;;;0.40;;
32788;SDS011;19141;48.980;8.410;2023-05-10T15:06:47;0.52;;;0.30;;
32788;SDS011;19141;48.980;8.410;2023-05-10T15:09:13;0.50;;;0.40;;
32788;SDS011;19141;48.980;8.410;2023-05-10T15:11:38;0.50;;;0.50;;
32788;SDS011;19141;48.980;8.410;2023-05-10T15:14:06;0.52;;;0.52;;
32788;SDS011;19141;48.980;8.410;2023-05-10T15:16:32;1.15;;;0.43;;
32788;SDS011;19141;48.980;8.410;2023-05-10T15:18:57;0.60;;;0.60;;
32788;SDS011;19141;48.980;8.410;2023-05-10T15:21:23;0.43;;;0.40;;
32788;SDS011;19141;48.980;8.410;2023-05-10T15:23:48;0.82;;;0.52;;
32788;SDS011;19141;48.980;8.410;2023-05-10T15:26:13;0.35;;;0.35;;
32788;SDS011;19141;48.980;8.410;2023-05-10T15:28:39;0.75;;;0.40;;
32788;SDS011;19141;48.980;8.410;2023-05-10T15:31:04;0.30;;;0.30;;
32788;SDS011;19141;48.980;8.410;2023-05-10T15:33:30;0.93;;;0.40;;
32788;SDS011;19141;48.980;8.410;2023-05-10T15:35:55;0.30;;;0.30;;
32788;SDS011;19141;48.980;8.410;2023-05-10T15:38:21;0.40;;;0.40;;
32788;SDS011;19141;48.980;8.410;2023-05-10T15:40:46;0.85;;;0.50;;
32788;SDS011;19141;48.980;8.410;2023-05-10T15:43:11;0.63;;;0.43;;
32788;SDS011;19141;48.980;8.410;2023-05-10T15:45:37;0.40;;;0.40;;
32788;SDS011;19141;48.980;8.410;2023-05-10T15:48:03;1.30;;;0.35;;
32788;SDS011;19141;48.980;8.410;2023-05-10T15:50:28;1.20;;;0.50;;
32788;SDS011;19141;48.980;8.410;2023-05-10T15:52:54;0.20;;;0.20;;
32788;SDS011;19141;48.980;8.410;2023-05-10T15:55:19;1.15;;;0.43;;
32788;SDS011;19141;48.980;8.410;2023-05-10T15:57:44;1.00;;;0.40;;
32788;SDS011;19141;48.980;8.410;2023-05-10T16:00:11;1.00;;;0.50;;
32788;SDS011;19141;48.980;8.410;2023-05-10T16:02:38;0.45;;;0.35;;
32788;SDS011;19141;48.980;8.410;2023-05-10T16:05:04;0.20;;;0.20;;
32788;SDS011;19141;48.980;8.410;2023-05-10T16:07:29;0.20;;;0.20;;
32788;SDS011;19141;48.980;8.410;2023-05-10T16:09:55;0.45;;;0.32;;
32788;SDS011;19141;48.980;8.410;2023-05-10T16:12:20;0.50;;;0.40;;
32788;SDS011;19141;48.980;8.410;2023-05-10T16:14:46;0.68;;;0.38;;
32788;SDS011;19141;48.980;8.410;2023-05-10T16:17:12;0.50;;;0.50;;
32788;SDS011;19141;48.980;8.410;2023-05-10T16:19:39;0.52;;;0.43;;
32788;SDS011;19141;48.980;8.410;2023-05-10T16:22:04;0.68;;;0.40;;
32788;SDS011;19141;48.980;8.410;2023-05-10T16:24:30;2.30;;;0.52;;
32788;SDS011;19141;48.980;8.410;2023-05-10T16:26:55;0.63;;;0.32;;
32788;SDS011;19141;48.980;8.410;2023-05-10T16:29:21;0.50;;;0.50;;
32788;SDS011;19141;48.980;8.410;2023-05-10T16:31:46;1.33;;;0.50;;
32788;SDS011;19141;48.980;8.410;2023-05-10T16:34:11;0.20;;;0.20;;
32788;SDS011;19141;48.980;8.410;2023-05-10T16:36:37;0.65;;;0.17;;
32788;SDS011;19141;48.980;8.410;2023-05-10T16:39:02;0.40;;;0.40;;
32788;SDS011;19141;48.980;8.410;2023-05-10T16:41:28;0.30;;;0.30;;
32788;SDS011;19141;48.980;8.410;2023-05-10T16:43:57;0.57;;;0.30;;
32788;SDS011;19141;48.980;8.410;2023-05-10T16:46:22;0.63;;;0.25;;
32788;SDS011;19141;48.980;8.410;2023-05-10T16:48:48;0.60;;;0.40;;
32788;SDS011;19141;48.980;8.410;2023-05-10T16:51:13;0.60;;;0.30;;
32788;SDS011;19141;48.980;8.410;2023-05-10T16:53:39;0.50;;;0.30;;
32788;SDS011;19141;48.980;8.410;2023-05-10T16:56:04;0.20;;;0.20;;
32788;SDS011;19141;48.980;8.410;2023-05-10T16:58:30;0.20;;;0.20;;
32788;SDS011;19141;48.980;8.410;2023-05-10T17:00:55;0.20;;;0.20;;
32788;SDS011;19141;48.980;8.410;2023-05-10T17:03:21;0.13;;;0.13;;
32788;SDS011;19141;48.980;8.410;2023-05-10T17:05:46;0.20;;;0.10;;
32788;SDS011;19141;48.980;8.410;2023-05-10T17:08:12;0.25;;;0.25;;
32788;SDS011;19141;48.980;8.410;2023-05-10T17:10:40;0.10;;;0.10;;
32788;SDS011;19141;48.980;8.410;2023-05-10T17:13:06;0.20;;;0.20;;
32788;SDS011;19141;48.980;8.410;2023-05-10T17:15:31;0.10;;;0.10;;
32788;SDS011;19141;48.980;8.410;2023-05-10T17:17:56;0.15;;;0.15;;
32788;SDS011;19141;48.980;8.410;2023-05-10T17:20:22;0.20;;;0.20;;
32788;SDS011;19141;48.980;8.410;2023-05-10T17:22:47;0.10;;;0.10;;
32788;SDS011;19141;48.980;8.410;2023-05-10T17:25:13;0.35;;;0.20;;
32788;SDS011;19141;48.980;8.410;2023-05-10T17:27:38;0.20;;;0.20;;
32788;SDS011;19141;48.980;8.410;2023-05-10T17:30:04;0.85;;;0.45;;
32788;SDS011;19141;48.980;8.410;2023-05-10T17:34:57;0.10;;;0.10;;
32788;SDS011;19141;48.980;8.410;2023-05-10T17:37:22;0.13;;;0.13;;
32788;SDS011;19141;48.980;8.410;2023-05-10T17:39:48;1.35;;;0.35;;
32788;SDS011;19141;48.980;8.410;2023-05-10T17:42:13;0.32;;;0.30;;
32788;SDS011;19141;48.980;8.410;2023-05-10T17:44:41;0.63;;;0.45;;
32788;SDS011;19141;48.980;8.410;2023-05-10T17:47:07;0.20;;;0.20;;
32788;SDS011;19141;48.980;8.410;2023-05-10T17:49:32;0.13;;;0.13;;
32788;SDS011;19141;48.980;8.410;2023-05-10T17:51:58;0.77;;;0.20;;
32788;SDS011;19141;48.980;8.410;2023-05-10T17:54:23;0.20;;;0.10;;
32788;SDS011;19141;48.980;8.410;2023-05-10T17:56:48;1.45;;;0.30;;
32788;SDS011;19141;48.980;8.410;2023-05-10T17:59:14;0.28;;;0.28;;
32788;SDS011;19141;48.980;8.410;2023-05-10T18:01:39;0.30;;;0.25;;
32788;SDS011;19141;48.980;8.410;2023-05-10T18:04:05;0.20;;;0.20;;
32788;SDS011;19141;48.980;8.410;2023-05-10T18:06:34;0.20;;;0.20;;
32788;SDS011;19141;48.980;8.410;2023-05-10T18:09:00;0.30;;;0.25;;
32788;SDS011;19141;48.980;8.410;2023-05-10T18:11:25;1.75;;;0.25;;
32788;SDS011;19141;48.980;8.410;2023-05-10T18:13:51;0.95;;;0.50;;
32788;SDS011;19141;48.980;8.410;2023-05-10T18:16:17;0.45;;;0.30;;
32788;SDS011;19141;48.980;8.410;2023-05-10T18:18:43;0.20;;;0.20;;
32788;SDS011;19141;48.980;8.410;2023-05-10T18:21:08;0.30;;;0.30;;
32788;SDS011;19141;48.980;8.410;2023-05-10T18:23:34;0.20;;;0.20;;
32788;SDS011;19141;48.980;8.410;2023-05-10T18:25:59;0.57;;;0.50;;
32788;SDS011;19141;48.980;8.410;2023-05-10T18:28:25;0.35;;;0.30;;
32788;SDS011;19141;48.980;8.410;2023-05-10T18:30:51;0.15;;;0.15;;
32788;SDS011;19141;48.980;8.410;2023-05-10T18:33:16;0.60;;;0.30;;
32788;SDS011;19141;48.980;8.410;2023-05-10T18:35:41;0.28;;;0.28;;
32788;SDS011;19141;48.980;8.410;2023-05-10T18:38:07;0.38;;;0.20;;
32788;SDS011;19141;48.980;8.410;2023-05-10T18:40:34;0.25;;;0.25;;
32788;SDS011;19141;48.980;8.410;2023-05-10T18:43:01;1.00;;;0.47;;
32788;SDS011;19141;48.980;8.410;2023-05-10T18:45:27;1.35;;;0.40;;
32788;SDS011;19141;48.980;8.410;2023-05-10T18:47:52;1.85;;;0.50;;
32788;SDS011;19141;48.980;8.410;2023-05-10T18:50:18;2.03;;;1.50;;
32788;SDS011;19141;48.980;8.410;2023-05-10T18:52:44;1.80;;;1.65;;
32788;SDS011;19141;48.980;8.410;2023-05-10T18:55:09;1.83;;;1.63;;
32788;SDS011;19141;48.980;8.410;2023-05-10T18:57:35;2.58;;;2.13;;
32788;SDS011;19141;48.980;8.410;2023-05-10T19:00:08;1.85;;;1.67;;
32788;SDS011;19141;48.980;8.410;2023-05-10T19:02:37;1.90;;;1.67;;
32788;SDS011;19141;48.980;8.410;2023-05-10T19:05:03;2.33;;;1.60;;
32788;SDS011;19141;48.980;8.410;2023-05-10T19:07:29;1.10;;;0.98;;
32788;SDS011;19141;48.980;8.410;2023-05-10T19:09:54;0.95;;;0.95;;
32788;SDS011;19141;48.980;8.410;2023-05-10T19:12:20;1.60;;;1.25;;
32788;SDS011;19141;48.980;8.410;2023-05-10T19:14:45;4.00;;;2.22;;
32788;SDS011;19141;48.980;8.410;2023-05-10T19:17:11;3.20;;;1.83;;
32788;SDS011;19141;48.980;8.410;2023-05-10T19:19:36;4.80;;;2.20;;
32788;SDS011;19141;48.980;8.410;2023-05-10T19:22:01;4.82;;;2.45;;
32788;SDS011;19141;48.980;8.410;2023-05-10T19:24:27;3.88;;;2.20;;
32788;SDS011;19141;48.980;8.410;2023-05-10T19:26:52;3.80;;;2.38;;